Time;durP1;ratioP1;P1;durP2;ratioP2;P2;SDS_P1;SDS_P2;PMS_P1;PMS_P2;Temp;Humidity;BMP_temperature;BMP_pressure;BME280_temperature;BME280_humidity;BME280_pressure;Samples;Min_cycle;Max_cycle;Signal;HPM_P1;HPM_P2
2022/01/17 00:00:24;;;;;;;;;35.33;30.00;;;;;10.72;61.34;102945.53;5053993;28;45387;-84
2022/01/17 00:02:52;;;;;;;;;30.00;27.00;;;;;10.77;61.38;102945.91;5053787;28;47923;-83
2022/01/17 00:05:18;;;;;;;;;30.00;27.33;;;;;10.80;61.28;102955.72;5052857;28;45362;-76
2022/01/17 00:07:44;;;;;;;;;32.33;28.33;;;;;10.84;61.49;102959.91;5055046;28;45442;-77
2022/01/17 00:10:10;;;;;;;;;33.00;29.33;;;;;10.82;61.60;102941.84;5070998;28;45707;-83
2022/01/17 00:12:38;;;;;;;;;43.33;33.00;;;;;10.81;60.84;102964.81;5055900;28;45521;-77
2022/01/17 00:15:16;;;;;;;;;33.33;30.33;;;;;10.80;61.03;102957.63;5053161;28;45544;-77
2022/01/17 00:17:44;;;;;;;;;32.33;29.33;;;;;10.76;61.40;102960.69;5077563;28;45445;-81
2022/01/17 00:20:14;;;;;;;;;36.67;30.00;;;;;10.82;61.33;102958.31;5078875;28;46460;-83
2022/01/17 00:22:39;;;;;;;;;27.67;27.67;;;;;10.78;61.01;102947.66;5076029;28;47273;-83
2022/01/17 00:25:06;;;;;;;;;30.33;24.67;;;;;10.81;61.11;102948.34;5076112;27;45409;-83
2022/01/17 00:27:33;;;;;;;;;35.67;30.33;;;;;10.72;60.75;102940.06;5075839;28;45471;-76
2022/01/17 00:29:59;;;;;;;;;37.67;31.00;;;;;10.72;60.95;102937.31;5074970;27;46161;-85
2022/01/17 00:32:25;;;;;;;;;31.67;30.00;;;;;10.82;61.11;102941.84;5078956;27;45792;-82
2022/01/17 00:34:51;;;;;;;;;35.33;31.67;;;;;10.77;60.75;102934.09;5079146;27;45469;-84
2022/01/17 00:37:16;;;;;;;;;29.00;24.33;;;;;10.88;61.53;102946.72;5079275;27;45761;-86
2022/01/17 00:39:41;;;;;;;;;35.00;30.00;;;;;10.91;60.43;102943.66;5077147;28;46179;-85
2022/01/17 00:42:07;;;;;;;;;27.00;26.00;;;;;10.92;61.08;102954.47;5079195;27;46662;-83
2022/01/17 00:44:33;;;;;;;;;27.33;26.33;;;;;10.91;60.82;102946.41;5078949;28;45839;-84
2022/01/17 00:47:00;;;;;;;;;28.33;25.67;;;;;10.94;60.50;102957.06;5076960;27;45817;-77
2022/01/17 00:49:25;;;;;;;;;27.67;25.33;;;;;10.92;60.93;102951.72;5075081;27;45458;-77
2022/01/17 00:51:51;;;;;;;;;30.33;23.33;;;;;10.86;60.70;102952.34;5075808;27;45726;-84
2022/01/17 00:54:16;;;;;;;;;30.00;26.33;;;;;10.91;60.84;102952.78;5075144;27;45854;-77
2022/01/17 00:56:42;;;;;;;;;32.00;25.67;;;;;10.86;61.00;102944.13;5074905;28;45955;-83
2022/01/17 00:59:07;;;;;;;;;28.00;25.67;;;;;10.94;60.41;102951.56;5077017;27;45664;-76
2022/01/17 01:01:32;;;;;;;;;28.33;23.67;;;;;10.95;60.58;102948.66;5075686;27;47273;-82
2022/01/17 01:03:58;;;;;;;;;28.33;26.00;;;;;10.93;60.00;102950.72;5082001;27;45472;-83
2022/01/17 01:06:23;;;;;;;;;27.00;24.33;;;;;10.85;60.18;102942.38;5086283;27;45336;-83
2022/01/17 01:08:49;;;;;;;;;25.33;23.67;;;;;10.84;60.85;102940.69;5085353;27;45323;-84
2022/01/17 01:11:14;;;;;;;;;32.00;28.67;;;;;10.82;60.50;102936.38;5085432;27;46669;-83
2022/01/17 01:13:40;;;;;;;;;26.00;23.67;;;;;10.85;60.69;102952.50;5069537;28;45843;-82
2022/01/17 01:16:29;;;;;;;;;32.00;28.00;;;;;10.86;60.29;102946.88;5072978;28;44815;-82
2022/01/17 01:29:28;;;;;;;;;28.67;24.33;;;;;10.83;60.65;102943.59;5065816;28;45403;-85
2022/01/17 01:31:59;;;;;;;;;24.00;22.67;;;;;10.83;60.51;102957.31;5068835;28;46099;-84
2022/01/17 01:34:34;;;;;;;;;29.33;26.33;;;;;10.78;60.54;102942.16;5081323;28;45709;-77
2022/01/17 01:37:02;;;;;;;;;28.67;24.00;;;;;10.71;60.73;102937.47;5060879;28;45366;-77
2022/01/17 01:39:28;;;;;;;;;30.33;26.67;;;;;10.77;60.70;102951.41;5064249;28;45639;-78
2022/01/17 01:41:54;;;;;;;;;27.67;23.67;;;;;10.81;61.11;102956.59;5072665;28;45584;-77
2022/01/17 01:44:22;;;;;;;;;27.67;25.67;;;;;10.78;60.92;102955.88;5074451;27;45389;-78
2022/01/17 01:46:49;;;;;;;;;25.67;24.00;;;;;10.77;60.70;102967.88;5075261;28;45365;-77
2022/01/17 01:49:16;;;;;;;;;31.33;26.00;;;;;10.79;60.78;102959.50;5075437;27;45658;-76
2022/01/17 01:51:42;;;;;;;;;27.00;25.00;;;;;10.77;61.09;102965.13;5074104;27;45780;-76
2022/01/17 01:54:08;;;;;;;;;36.00;29.00;;;;;10.77;61.41;102967.88;5075795;27;45307;-84
2022/01/17 01:56:43;;;;;;;;;30.00;25.33;;;;;10.81;60.98;102973.94;5074886;27;45686;-76
2022/01/17 01:59:09;;;;;;;;;31.67;29.00;;;;;10.73;60.77;102954.63;5074637;27;45771;-78
2022/01/17 02:01:34;;;;;;;;;32.00;29.67;;;;;10.77;61.33;102969.78;5075160;27;45190;-77
2022/01/17 02:04:01;;;;;;;;;33.67;26.67;;;;;10.78;60.62;102963.28;5076121;27;45647;-83
2022/01/17 02:06:26;;;;;;;;;37.67;29.67;;;;;10.79;61.24;102984.19;5091562;27;45806;-84
2022/01/17 02:08:51;;;;;;;;;34.33;28.33;;;;;10.78;60.88;102974.25;5069859;28;46099;-77
2022/01/17 02:11:17;;;;;;;;;42.00;32.67;;;;;10.78;61.15;102966.88;5080172;27;45503;-84
2022/01/17 02:13:43;;;;;;;;;35.33;28.67;;;;;10.76;61.36;102960.69;5081799;28;44834;-83
2022/01/17 02:16:12;;;;;;;;;31.33;29.33;;;;;10.83;60.99;102971.88;5080911;28;45825;-83
2022/01/17 02:18:40;;;;;;;;;35.00;29.33;;;;;10.83;60.85;102976.53;5082626;28;45512;-84
2022/01/17 02:23:39;;;;;;;;;27.00;25.00;;;;;10.81;61.41;102962.97;5082086;27;45733;-83
2022/01/17 02:26:04;;;;;;;;;31.00;27.33;;;;;10.78;61.28;102964.13;5082404;28;45314;-76
2022/01/17 02:28:33;;;;;;;;;29.00;27.00;;;;;10.82;61.60;102961.06;5089512;27;44814;-77
2022/01/17 02:30:59;;;;;;;;;33.33;29.33;;;;;10.84;61.31;102956.28;5091463;28;45161;-82
2022/01/17 02:33:25;;;;;;;;;30.33;29.67;;;;;10.84;60.78;102961.75;5087510;28;45180;-76
2022/01/17 02:35:51;;;;;;;;;30.67;27.00;;;;;10.77;61.38;102948.66;5090195;28;44858;-77
2022/01/17 02:38:17;;;;;;;;;31.33;29.00;;;;;10.80;61.24;102957.63;5088882;28;45122;-78
2022/01/17 02:40:42;;;;;;;;;31.33;29.67;;;;;10.82;60.94;102955.56;5090848;28;45567;-77
2022/01/17 02:43:08;;;;;;;;;29.33;27.67;;;;;10.77;61.21;102945.06;5089460;27;44822;-75
2022/01/17 02:45:38;;;;;;;;;34.33;29.67;;;;;10.74;60.99;102939.91;5083005;28;44791;-76
2022/01/17 02:48:11;;;;;;;;;26.67;19.33;;;;;10.81;60.86;102943.75;5078434;28;45779;-76
2022/01/17 02:50:39;;;;;;;;;35.00;30.33;;;;;10.83;61.52;102949.94;5078448;28;46288;-77
2022/01/17 02:53:08;;;;;;;;;30.00;26.00;;;;;10.77;61.13;102940.44;5085013;28;45393;-82
2022/01/17 02:55:33;;;;;;;;;30.67;29.00;;;;;10.82;61.12;102941.84;5077913;28;45432;-76
2022/01/17 02:57:59;;;;;;;;;28.67;26.67;;;;;10.88;61.47;102964.06;5074982;28;45925;-77
2022/01/17 03:00:24;;;;;;;;;36.33;31.00;;;;;10.90;61.53;102966.66;5077840;28;45935;-78
2022/01/17 03:02:50;;;;;;;;;32.33;29.00;;;;;10.87;61.16;102962.34;5079160;28;45365;-83
2022/01/17 03:05:16;;;;;;;;;37.33;31.33;;;;;10.87;61.51;102966.97;5094177;27;45353;-81
2022/01/17 03:07:42;;;;;;;;;31.00;29.00;;;;;10.86;61.52;102967.97;5079282;27;45511;-77
2022/01/17 03:10:16;;;;;;;;;36.67;31.00;;;;;10.83;61.34;102973.78;5075979;28;46295;-76
2022/01/17 03:12:41;;;;;;;;;38.00;31.33;;;;;10.81;61.02;102976.69;5076945;28;45348;-75
2022/01/17 03:15:08;;;;;;;;;34.67;27.67;;;;;10.83;61.18;102976.53;5078432;27;45740;-76
2022/01/17 03:17:33;;;;;;;;;32.00;28.33;;;;;10.80;61.10;102979.59;5098785;27;46975;-76
2022/01/17 03:19:58;;;;;;;;;33.33;29.67;;;;;10.78;61.01;102964.13;5101748;27;47379;-76
2022/01/17 03:22:24;;;;;;;;;36.33;29.67;;;;;10.87;61.22;102972.47;5084681;28;45507;-81
2022/01/17 03:24:49;;;;;;;;;30.67;28.67;;;;;10.91;60.92;102987.56;5081113;27;45414;-83
2022/01/17 03:27:15;;;;;;;;;24.00;23.00;;;;;10.89;60.87;102975.91;5068810;28;46095;-76
2022/01/17 03:29:40;;;;;;;;;34.33;30.67;;;;;10.94;60.76;102979.03;5057782;28;45944;-85
2022/01/17 03:32:06;;;;;;;;;33.67;29.33;;;;;10.92;61.35;102972.84;5068486;28;45493;-83
2022/01/17 03:34:31;;;;;;;;;33.67;29.67;;;;;10.97;60.65;102994.34;5075092;28;45675;-83
2022/01/17 03:36:57;;;;;;;;;36.67;30.00;;;;;10.90;60.73;102977.63;5065832;28;45434;-76
2022/01/17 03:39:22;;;;;;;;;35.67;31.33;;;;;11.01;60.51;102996.59;5073255;28;47022;-82
2022/01/17 03:41:48;;;;;;;;;37.33;31.67;;;;;10.95;61.04;102984.38;5061601;28;45354;-77
2022/01/17 03:44:13;;;;;;;;;36.00;30.67;;;;;11.01;61.06;102990.25;5067980;28;45700;-75
2022/01/17 03:46:39;;;;;;;;;33.00;29.00;;;;;10.92;61.18;102983.81;5056207;28;45736;-75
2022/01/17 03:49:04;;;;;;;;;37.67;31.33;;;;;10.86;61.25;102981.69;5053901;28;45867;-78
2022/01/17 03:51:39;;;;;;;;;33.67;32.00;;;;;10.85;61.49;102997.28;5072850;28;45355;-77
2022/01/17 03:54:10;;;;;;;;;37.00;31.00;;;;;10.87;61.20;103002.66;5088855;27;45405;-77
2022/01/17 03:56:42;;;;;;;;;40.33;32.00;;;;;10.88;61.21;103001.63;5094775;27;45287;-83
2022/01/17 03:59:17;;;;;;;;;32.00;30.67;;;;;10.93;61.12;103007.53;5096400;27;45281;-84
2022/01/17 04:02:01;;;;;;;;;34.00;31.00;;;;;10.95;61.13;103019.19;5091146;28;45346;-83
2022/01/17 04:04:58;;;;;;;;;34.00;29.67;;;;;10.95;61.13;103017.31;5096601;27;44803;-82
2022/01/17 04:07:30;;;;;;;;;32.00;30.00;;;;;10.95;60.73;103013.72;5094443;27;45834;-84
2022/01/17 04:09:55;;;;;;;;;29.33;27.67;;;;;10.83;60.71;102999.34;5082601;28;46011;-83
2022/01/17 04:12:21;;;;;;;;;33.67;32.33;;;;;10.94;60.50;103017.47;5072897;27;45489;-77
2022/01/17 04:14:46;;;;;;;;;34.33;30.00;;;;;10.86;60.86;103007.25;5063189;27;45437;-76
2022/01/17 04:17:11;;;;;;;;;30.33;28.00;;;;;10.89;60.88;103022.56;5073026;28;46067;-77
2022/01/17 04:19:37;;;;;;;;;34.00;31.67;;;;;10.87;61.04;103022.72;5062224;27;45930;-72
2022/01/17 04:22:03;;;;;;;;;33.00;30.00;;;;;10.97;60.94;103033.63;5054816;28;45786;-70
2022/01/17 04:24:28;;;;;;;;;31.33;28.67;;;;;10.99;60.85;103036.22;5056392;28;45502;-79
2022/01/17 04:26:54;;;;;;;;;31.00;27.33;;;;;10.99;60.87;103036.22;5072074;28;45887;-80
2022/01/17 04:29:20;;;;;;;;;36.00;30.33;;;;;11.03;60.40;103037.63;5065361;27;45880;-79
2022/01/17 04:31:46;;;;;;;;;34.33;32.00;;;;;11.01;60.60;103029.56;5073195;28;45185;-80
2022/01/17 04:34:12;;;;;;;;;40.00;32.67;;;;;11.03;61.04;103022.03;5068390;27;45929;-79
2022/01/17 04:36:37;;;;;;;;;34.00;30.00;;;;;11.06;60.59;103029.09;5076085;28;45445;-81
2022/01/17 04:39:03;;;;;;;;;39.00;32.33;;;;;11.07;60.45;103017.94;5074255;28;45487;-80
2022/01/17 04:41:37;;;;;;;;;30.00;29.33;;;;;11.07;60.49;103012.44;5069738;27;45581;-79
2022/01/17 04:46:47;;;;;;;;;37.00;32.00;;;;;11.05;60.44;103022.75;5085885;27;44828;-82
2022/01/17 04:49:13;;;;;;;;;35.00;29.67;;;;;10.96;60.66;103012.69;5088023;27;46694;-80
2022/01/17 04:51:39;;;;;;;;;36.00;32.33;;;;;10.91;60.90;103012.28;5089047;27;44752;-80
2022/01/17 04:56:59;;;;;;;;;37.67;31.33;;;;;10.83;60.84;103023.19;5091006;27;45493;-80
2022/01/17 04:59:24;;;;;;;;;32.00;30.67;;;;;10.80;61.51;103026.25;5092592;27;45210;-80
2022/01/17 05:01:50;;;;;;;;;26.33;25.67;;;;;10.76;61.28;103018.31;5102004;27;45424;-81
2022/01/17 05:04:15;;;;;;;;;31.67;30.00;;;;;10.65;61.48;103006.69;5108067;27;46020;-82
2022/01/17 05:06:41;;;;;;;;;27.67;27.33;;;;;10.63;61.23;103025.16;5089757;27;45583;-76
2022/01/17 05:09:06;;;;;;;;;31.67;29.67;;;;;10.54;61.81;103027.84;5097991;27;45219;-81
2022/01/17 05:11:32;;;;;;;;;39.25;32.00;;;;;10.48;62.06;103033.03;5086266;27;45455;-75
2022/01/17 05:13:58;;;;;;;;;40.25;34.00;;;;;10.36;62.31;103036.00;5072846;27;45513;-77
2022/01/17 05:16:31;;;;;;;;;33.67;30.00;;;;;10.29;62.28;103044.97;5076673;27;45387;-79
2022/01/17 05:21:42;;;;;;;;;35.67;31.33;;;;;10.11;62.63;103043.00;5078558;28;45632;-78
2022/01/17 05:24:08;;;;;;;;;32.00;29.33;;;;;10.04;63.29;103048.22;5074633;27;45471;-74
2022/01/17 05:26:33;;;;;;;;;36.00;28.67;;;;;10.01;63.52;103042.16;5075357;27;45698;-85
2022/01/17 05:28:59;;;;;;;;;38.00;32.25;;;;;9.98;63.41;103036.97;5067281;27;46816;-83
2022/01/17 05:31:24;;;;;;;;;38.75;30.50;;;;;9.95;63.37;103046.34;5079178;27;45725;-83
2022/01/17 05:33:49;;;;;;;;;34.25;31.75;;;;;9.89;63.77;103052.41;5079616;27;45577;-76
2022/01/17 05:36:15;;;;;;;;;38.75;31.75;;;;;9.89;63.73;103049.69;5074949;27;45869;-77
2022/01/17 05:38:40;;;;;;;;;41.00;33.67;;;;;9.77;63.92;103042.63;5079343;27;45438;-80
2022/01/17 05:41:08;;;;;;;;;42.25;36.75;;;;;9.84;63.75;103047.38;5076247;27;45479;-82
2022/01/17 05:43:34;;;;;;;;;36.50;30.25;;;;;9.82;63.94;103048.53;5083382;27;45513;-81
2022/01/17 05:45:59;;;;;;;;;36.25;32.25;;;;;9.72;63.56;103038.47;5075473;27;45375;-80
2022/01/17 05:48:25;;;;;;;;;47.25;35.00;;;;;9.86;63.49;103071.91;5086089;27;46178;-86
2022/01/17 05:50:51;;;;;;;;;37.00;31.25;;;;;9.85;63.41;103068.31;5081559;27;45773;-81
2022/01/17 05:53:16;;;;;;;;;35.50;30.75;;;;;9.83;63.17;103073.06;5078016;27;45477;-82
2022/01/17 05:55:42;;;;;;;;;41.67;32.67;;;;;9.76;63.69;103062.81;5073159;27;45955;-89
2022/01/17 05:58:08;;;;;;;;;33.50;28.25;;;;;9.81;63.57;103077.81;5078341;27;45633;-86
2022/01/17 06:00:34;;;;;;;;;27.75;26.50;;;;;9.61;63.91;103046.84;5072679;27;45561;-88
2022/01/17 06:03:00;;;;;;;;;40.75;32.75;;;;;9.71;63.66;103066.00;5060991;28;45450;-80
2022/01/17 06:05:25;;;;;;;;;41.00;34.25;;;;;9.66;64.22;103063.69;5056946;28;45338;-76
2022/01/17 06:07:51;;;;;;;;;39.50;33.00;;;;;9.62;63.96;103061.41;5060362;28;46386;-80
2022/01/17 06:10:16;;;;;;;;;29.25;25.00;;;;;9.55;63.89;103050.19;5076491;28;45576;-82
2022/01/17 06:12:42;;;;;;;;;41.00;32.67;;;;;9.57;63.78;103061.84;5075763;28;45753;-80
2022/01/17 06:15:10;;;;;;;;;45.00;35.00;;;;;9.53;64.06;103065.88;5078644;27;45860;-83
2022/01/17 06:17:36;;;;;;;;;38.50;32.00;;;;;9.49;63.75;103064.44;5074321;27;46807;-75
2022/01/17 06:20:04;;;;;;;;;39.00;33.75;;;;;9.48;63.62;103076.41;5072753;27;45421;-77
2022/01/17 06:22:29;;;;;;;;;35.00;31.75;;;;;9.43;63.75;103085.06;5070128;28;45753;-76
2022/01/17 06:24:55;;;;;;;;;32.00;30.25;;;;;9.40;63.46;103076.25;5064072;27;46515;-74
2022/01/17 06:27:20;;;;;;;;;38.50;32.75;;;;;9.32;64.01;103072.34;5065442;28;48366;-74
2022/01/17 06:29:45;;;;;;;;;82.50;66.25;;;;;9.31;64.11;103089.81;5062615;28;45718;-76
2022/01/17 06:32:11;;;;;;;;;42.25;35.00;;;;;9.29;64.03;103104.66;5075553;27;45414;-83
2022/01/17 06:34:36;;;;;;;;;46.25;34.50;;;;;9.28;63.99;103106.53;5056495;28;45768;-83
2022/01/17 06:37:03;;;;;;;;;40.00;34.00;;;;;9.26;64.09;103107.66;5068179;28;45878;-79
2022/01/17 06:39:29;;;;;;;;;40.50;31.25;;;;;9.23;63.69;103114.28;5067779;27;45480;-81
2022/01/17 06:41:54;;;;;;;;;37.75;32.00;;;;;9.21;63.69;103121.78;5070681;27;45689;-80
2022/01/17 06:44:19;;;;;;;;;33.50;31.00;;;;;9.17;63.96;103131.28;5066818;27;45489;-83
2022/01/17 06:46:45;;;;;;;;;33.75;30.00;;;;;9.15;63.77;103130.56;5066103;28;45478;-81
2022/01/17 06:49:10;;;;;;;;;42.50;33.25;;;;;9.05;64.03;103126.94;5071912;28;45648;-83
2022/01/17 06:51:36;;;;;;;;;41.25;32.00;;;;;9.10;63.97;103141.94;5069637;28;45788;-83
2022/01/17 06:54:02;;;;;;;;;38.50;33.00;;;;;9.09;64.08;103139.34;5064945;27;45438;-77
2022/01/17 06:56:27;;;;;;;;;44.25;34.75;;;;;9.03;64.03;103113.38;5072085;27;45515;-78
2022/01/17 06:58:53;;;;;;;;;32.75;30.50;;;;;9.09;64.17;103123.78;5059357;28;45820;-78
2022/01/17 07:01:20;;;;;;;;;39.75;33.50;;;;;9.05;64.14;103121.47;5050081;28;45954;-78
2022/01/17 07:03:46;;;;;;;;;40.00;33.50;;;;;9.03;64.08;103121.59;5062786;27;45879;-80
2022/01/17 07:06:12;;;;;;;;;36.50;29.25;;;;;9.02;63.86;103126.19;5074244;27;46975;-78
2022/01/17 07:08:40;;;;;;;;;41.25;32.00;;;;;9.01;64.38;103132.69;5073453;27;45580;-84
2022/01/17 07:11:06;;;;;;;;;38.25;32.00;;;;;8.92;64.12;103099.81;5055280;27;45934;-77
2022/01/17 07:13:31;;;;;;;;;33.75;30.50;;;;;8.99;64.07;103142.03;5068717;27;45869;-79
2022/01/17 07:15:57;;;;;;;;;37.25;33.50;;;;;8.89;64.93;103149.34;5070785;27;45587;-78
2022/01/17 07:18:23;;;;;;;;;39.00;33.75;;;;;8.96;64.64;103165.06;5076345;27;45547;-79
2022/01/17 07:20:51;;;;;;;;;40.00;35.00;;;;;8.89;64.85;103183.06;5072764;27;45493;-81
2022/01/17 07:23:17;;;;;;;;;34.75;31.00;;;;;8.93;64.93;103194.59;5072882;27;45492;-78
2022/01/17 07:25:42;;;;;;;;;42.00;34.00;;;;;8.94;64.86;103201.81;5070785;27;46210;-78
2022/01/17 07:28:09;;;;;;;;;42.25;34.00;;;;;8.82;64.61;103171.78;5067333;28;45449;-78
2022/01/17 07:30:36;;;;;;;;;35.25;31.00;;;;;8.95;64.50;103173.41;5074798;28;45701;-82
2022/01/17 07:33:03;;;;;;;;;41.00;31.75;;;;;8.92;64.10;103157.28;5071790;28;47544;-84
2022/01/17 07:35:28;;;;;;;;;34.25;28.00;;;;;8.92;64.39;103166.38;5057056;27;45439;-79
2022/01/17 07:37:54;;;;;;;;;36.75;34.00;;;;;8.92;64.40;103160.00;5059207;27;45675;-77
2022/01/17 07:40:19;;;;;;;;;40.75;34.25;;;;;8.86;64.42;103155.94;5072979;27;45474;-77
2022/01/17 07:42:45;;;;;;;;;35.50;32.00;;;;;8.92;64.66;103157.28;5075720;27;45906;-79
2022/01/17 07:45:14;;;;;;;;;41.50;33.25;;;;;8.97;64.28;103158.59;5079097;27;46014;-86
2022/01/17 07:47:56;;;;;;;;;37.75;32.50;;;;;8.98;64.75;103154.88;5079950;28;45417;-81
2022/01/17 07:50:24;;;;;;;;;41.00;33.50;;;;;9.02;64.42;103150.81;5079312;27;45708;-84
2022/01/17 07:52:51;;;;;;;;;37.00;33.50;;;;;8.97;64.20;103153.13;5075055;27;45365;-80
2022/01/17 07:55:18;;;;;;;;;46.50;37.75;;;;;8.99;64.26;103170.25;5080511;28;45737;-83
2022/01/17 07:57:44;;;;;;;;;39.50;34.25;;;;;9.12;64.54;103177.38;5077221;27;45776;-83
2022/01/17 08:00:13;;;;;;;;;37.75;32.00;;;;;9.16;63.86;103184.28;5069359;27;45583;-84
2022/01/17 08:02:38;;;;;;;;;43.75;34.50;;;;;9.18;64.14;103188.63;5056632;28;45601;-83
2022/01/17 08:05:04;;;;;;;;;45.00;37.50;;;;;9.12;64.06;103170.03;5060130;28;45629;-83
2022/01/17 08:07:30;;;;;;;;;45.00;38.25;;;;;9.24;63.63;103181.75;5065838;27;46305;-82
2022/01/17 08:09:56;;;;;;;;;43.50;36.25;;;;;9.28;63.54;103183.19;5088573;27;46052;-84
2022/01/17 08:12:21;;;;;;;;;45.75;36.25;;;;;9.25;63.39;103175.25;5095576;27;45862;-83
2022/01/17 08:14:46;;;;;;;;;48.25;34.50;;;;;9.35;63.32;103184.34;5076004;27;48783;-81
2022/01/17 08:17:12;;;;;;;;;38.50;33.75;;;;;9.41;63.16;103184.81;5059651;27;45466;-83
2022/01/17 08:19:38;;;;;;;;;43.25;35.25;;;;;9.47;62.94;103186.97;5063450;27;45925;-82
2022/01/17 08:22:06;;;;;;;;;43.75;35.25;;;;;9.50;62.94;103193.03;5063897;27;46878;-81
2022/01/17 08:24:34;;;;;;;;;40.25;35.75;;;;;9.58;62.59;103194.19;5067425;27;45958;-80
2022/01/17 08:27:01;;;;;;;;;51.50;40.00;;;;;9.62;62.49;103202.00;5070633;27;45464;-81
2022/01/17 08:29:27;;;;;;;;;48.50;40.50;;;;;9.69;62.72;103211.38;5067676;27;45544;-82
2022/01/17 08:31:53;;;;;;;;;48.50;38.25;;;;;9.77;61.83;103207.06;5066507;27;45447;-82
2022/01/17 08:34:19;;;;;;;;;49.25;39.50;;;;;9.91;62.47;103206.66;5072111;28;45552;-81
2022/01/17 08:36:49;;;;;;;;;46.25;35.75;;;;;10.08;61.80;103205.91;5068725;27;45454;-79
2022/01/17 08:39:32;;;;;;;;;44.50;34.50;;;;;10.24;61.38;103207.22;5070062;27;45848;-81
2022/01/17 08:41:58;;;;;;;;;37.50;30.00;;;;;10.44;61.49;103220.94;5074918;27;45476;-81
2022/01/17 08:44:24;;;;;;;;;50.75;39.50;;;;;10.64;60.21;103216.25;5075495;27;47782;-81
2022/01/17 08:46:50;;;;;;;;;49.25;37.50;;;;;10.74;59.97;103217.97;5068237;27;45548;-74
2022/01/17 08:49:16;;;;;;;;;48.50;39.50;;;;;10.95;59.44;103216.88;5068390;27;45729;-78
2022/01/17 08:51:43;;;;;;;;;47.75;39.50;;;;;11.12;59.16;103223.44;5062123;27;45820;-75
2022/01/17 08:54:08;;;;;;;;;48.75;39.00;;;;;11.22;58.29;103226.16;5071206;28;45583;-76
2022/01/17 08:56:34;;;;;;;;;53.00;39.00;;;;;11.35;58.36;103226.69;5070090;27;45537;-76
2022/01/17 08:59:02;;;;;;;;;50.00;39.50;;;;;11.48;57.74;103229.03;5068582;27;45425;-75
2022/01/17 09:01:28;;;;;;;;;48.00;38.75;;;;;11.52;57.99;103219.47;5059634;27;46089;-82
2022/01/17 09:03:54;;;;;;;;;44.50;34.50;;;;;11.64;57.28;103220.13;5073795;27;48070;-82
2022/01/17 09:06:23;;;;;;;;;48.25;38.75;;;;;11.83;57.72;103227.38;5093642;27;45542;-83
2022/01/17 09:08:48;;;;;;;;;45.00;33.50;;;;;11.96;56.71;103232.50;5067232;27;45616;-83
2022/01/17 09:11:14;;;;;;;;;37.50;32.00;;;;;12.03;56.93;103228.13;5062611;27;45822;-81
2022/01/17 09:13:39;;;;;;;;;34.75;31.00;;;;;12.13;56.37;103245.41;5062195;27;47095;-83
2022/01/17 09:16:05;;;;;;;;;36.67;31.67;;;;;12.18;55.86;103253.19;5064567;27;45763;-80
2022/01/17 09:18:31;;;;;;;;;41.00;32.00;;;;;12.24;55.99;103255.31;5069362;27;45462;-82
2022/01/17 09:20:56;;;;;;;;;36.00;32.00;;;;;12.24;55.94;103252.53;5066115;27;46004;-83
2022/01/17 09:23:23;;;;;;;;;36.33;31.67;;;;;12.31;55.89;103261.06;5072209;27;45560;-82
2022/01/17 09:25:49;;;;;;;;;36.67;29.33;;;;;12.36;56.51;103261.41;5062840;27;46084;-82
2022/01/17 09:28:14;;;;;;;;;39.00;32.00;;;;;12.46;56.21;103267.72;5069075;27;45391;-83
2022/01/17 09:30:40;;;;;;;;;35.67;32.33;;;;;12.49;55.81;103261.03;5071030;27;45500;-81
2022/01/17 09:33:06;;;;;;;;;37.67;32.33;;;;;12.46;55.51;103267.72;5071371;27;48065;-82
2022/01/17 09:35:32;;;;;;;;;43.00;33.00;;;;;12.53;55.73;103274.31;5068025;27;45520;-83
2022/01/17 09:37:58;;;;;;;;;39.33;33.33;;;;;12.56;55.65;103284.16;5079390;27;45903;-82
2022/01/17 09:40:24;;;;;;;;;36.67;30.00;;;;;12.56;55.45;103292.41;5077740;27;46718;-80
2022/01/17 09:42:49;;;;;;;;;34.67;31.00;;;;;12.56;55.79;103294.28;5065323;27;46205;-81
2022/01/17 09:45:18;;;;;;;;;34.67;30.00;;;;;12.49;55.21;103278.41;5067198;27;45685;-82
2022/01/17 09:47:45;;;;;;;;;30.67;24.67;;;;;12.60;55.44;103280.03;5064394;27;45386;-81
2022/01/17 09:50:19;;;;;;;;;30.33;28.33;;;;;12.64;54.71;103286.09;5079645;27;46044;-83
2022/01/17 09:52:48;;;;;;;;;33.67;30.00;;;;;12.64;54.78;103275.09;5064025;27;45536;-83
2022/01/17 09:55:21;;;;;;;;;39.33;30.33;;;;;12.73;54.62;103289.78;5053706;28;45542;-83
2022/01/17 09:58:13;;;;;;;;;26.00;26.00;;;;;12.73;54.72;103292.53;5058107;28;45279;-75
2022/01/17 10:00:43;;;;;;;;;29.33;26.67;;;;;12.69;53.90;103300.22;5074742;27;45291;-81
2022/01/17 10:03:16;;;;;;;;;32.33;29.33;;;;;12.64;54.47;103313.63;5074154;27;45830;-75
2022/01/17 10:05:42;;;;;;;;;35.67;30.00;;;;;12.58;55.05;103303.25;5068691;27;45729;-77
2022/01/17 10:08:10;;;;;;;;;42.00;32.00;;;;;12.56;54.54;103308.03;5068609;28;45684;-75
2022/01/17 10:10:40;;;;;;;;;37.00;30.67;;;;;12.67;55.11;103319.66;5054544;28;45481;-82
2022/01/17 10:13:13;;;;;;;;;220.75;190.75;;;;;12.68;54.96;103324.16;5068173;28;45643;-75
2022/01/17 10:15:54;;;;;;;;;114.75;105.00;;;;;12.68;55.02;103315.91;5073709;27;45801;-75
2022/01/17 10:18:29;;;;;;;;;49.50;38.50;;;;;12.75;54.57;103320.75;5088818;27;45425;-74
2022/01/17 10:21:03;;;;;;;;;49.50;40.75;;;;;12.77;54.58;103325.09;5084985;27;45718;-73
2022/01/17 10:26:31;;;;;;;;;45.67;33.33;;;;;12.75;54.38;103326.28;5071708;27;45716;-75
2022/01/17 10:29:14;;;;;;;;;71.25;54.50;;;;;12.79;54.76;103330.44;5073064;28;45315;-79
2022/01/17 10:37:13;;;;;;;;;44.67;34.00;;;;;12.87;54.34;103328.63;5070716;28;45576;-76
2022/01/17 10:40:03;;;;;;;;;47.75;38.00;;;;;12.81;54.80;103329.22;5072406;27;45457;-81
2022/01/17 10:42:41;;;;;;;;;44.00;33.67;;;;;12.76;54.53;103339.03;5071826;27;45535;-82
2022/01/17 10:45:07;;;;;;;;;45.67;35.00;;;;;12.80;54.79;103338.53;5071073;28;47931;-80
2022/01/17 10:47:36;;;;;;;;;44.33;34.67;;;;;12.73;54.87;103328.31;5070922;28;45781;-81
2022/01/17 10:50:09;;;;;;;;;46.67;33.33;;;;;12.79;54.56;103313.91;5071242;27;45386;-75
2022/01/17 10:52:42;;;;;;;;;47.00;37.00;;;;;12.80;54.82;103313.75;5067353;28;45768;-76
2022/01/17 10:55:16;;;;;;;;;41.33;33.67;;;;;12.83;54.93;103299.66;5050984;28;45398;-74
2022/01/17 10:57:51;;;;;;;;;41.67;34.00;;;;;13.00;55.05;103283.25;5063148;28;45646;-78
2022/01/17 11:00:23;;;;;;;;;42.00;34.00;;;;;13.21;53.63;103291.13;5062881;27;45622;-81
2022/01/17 11:02:54;;;;;;;;;45.67;34.00;;;;;13.30;52.97;103281.00;5066012;28;45418;-77
2022/01/17 11:05:22;;;;;;;;;44.67;35.67;;;;;13.46;53.24;103282.97;5061530;28;46167;-77
2022/01/17 11:07:50;;;;;;;;;46.00;34.33;;;;;13.61;52.99;103289.63;5054016;28;45725;-76
2022/01/17 11:10:20;;;;;;;;;41.33;34.33;;;;;13.71;52.49;103294.97;5052809;28;45480;-75
2022/01/17 11:12:46;;;;;;;;;41.00;34.00;;;;;13.73;53.22;103285.50;5052668;28;47120;-82
2022/01/17 11:15:14;;;;;;;;;37.33;31.67;;;;;13.84;52.52;103283.47;5055597;28;45699;-76
2022/01/17 11:17:46;;;;;;;;;31.67;29.67;;;;;13.81;52.11;103292.94;5073373;27;45417;-80
2022/01/17 11:20:12;;;;;;;;;38.00;29.67;;;;;13.73;52.18;103298.44;5096046;27;45692;-76
2022/01/17 11:22:40;;;;;;;;;29.33;28.67;;;;;13.62;51.93;103285.81;5095543;27;45785;-82
2022/01/17 11:25:09;;;;;;;;;27.33;24.33;;;;;13.71;52.21;103289.47;5081426;27;46451;-82
2022/01/17 11:27:36;;;;;;;;;34.33;29.67;;;;;13.65;52.09;103301.16;5062020;28;45532;-75
2022/01/17 11:30:03;;;;;;;;;27.33;25.33;;;;;13.60;52.08;103276.84;5063102;27;45421;-75
2022/01/17 11:32:29;;;;;;;;;36.67;30.33;;;;;13.64;52.27;103272.72;5067940;27;45807;-74
2022/01/17 11:34:58;;;;;;;;;33.00;29.00;;;;;13.66;51.74;103267.91;5076009;27;45638;-81
2022/01/17 11:37:25;;;;;;;;;40.67;33.00;;;;;13.66;52.29;103269.81;5073710;27;45416;-80
2022/01/17 11:39:55;;;;;;;;;36.67;33.00;;;;;13.64;53.33;103272.72;5063820;27;45752;-74
2022/01/17 11:42:29;;;;;;;;;28.33;27.67;;;;;13.65;52.33;103270.81;5080292;27;45789;-76